ADDS METAR Data INFO
IDs: Format: Raw Decoded Include TAF

Data at: 0923 UTC 13 Dec 2017

PAOT 130853Z 11021KT 10SM OVC075 01/M02 A2960 RMK AO2 PK WND 10030/0811 SLP023 T00111017 400111083 53005 $
PAOT 130753Z 11021KT 10SM SCT070 BKN085 01/M02 A2959 RMK AO2 PK WND 08026/0655 SLP020 T00111017 $
PAOT 130653Z 09022KT 10SM BKN090 01/M01 A2958 RMK AO2 PK WND 08027/0627 SLP016 T00111011 $
PAOT 130553Z 09021KT 10SM FEW075 OVC100 01/M01 A2958 RMK AO2 PK WND 09026/0547 SLP018 60000 T00111011 10011 21011 50002 $
PAOT 130453Z 09018KT 10SM OVC060 01/M01 A2959 RMK AO2 RAE04 SLP019 P0000 T00111011 $
PAOT 130353Z 10019KT 10SM -RA OVC044 01/M01 A2959 RMK AO2 PK WND 10026/0258 RAB52 SLP020 P0000 T00111006 $
PAOT 130253Z 10022KT 10SM BKN060 OVC080 01/M01 A2958 RMK AO2 PK WND 08026/0228 SLP017 T00061011 55004 $
PAOT 130153Z 09019KT 10SM SCT075 OVC140 M01/M02 A2958 RMK AO2 SLP016 T10061022 $
PAOT 130053Z 09017KT 10SM SCT080 M01/M02 A2958 RMK AO2 SLP017 T10061022 $
PAOT 122353Z 10017KT 10SM OVC065 00/M01 A2959 RMK AO2 RAE50 SLP021 P0000 60001 I6001 T00001011 10006 21033 58001 $
PAOT 122253Z 11016KT 10SM -RA FEW033 BKN060 OVC100 00/M01 A2960 RMK AO2 UPE2156RAB51 SLP024 P0000 I1001 T00001006 $
PAOT 122153Z COR 10014KT 9SM OVC055 M01/M01 A2959 RMK AO2 UPB22SNE22 SLP020 P0001 I1000 T10061011 $
PAOT 122112Z 11015KT 5SM -SN BR BKN042 OVC050 M02/M03 A2959 RMK AO2 P0001 T10171028 $
PAOT 122053Z 11014KT 2SM -SN BR OVC035 M02/M03 A2959 RMK AO2 SNB21 SLP021 P0000 60000 T10171028 51006 $
PAOT 122051Z 11014KT 2SM -SN BR FEW029 OVC035 M02/M03 A2959 RMK AO2 SNB21 P0000 $
PAOT 121953Z 11012KT 10SM OVC049 M02/M04 A2959 RMK AO2 SLP020 T10221039 $
PAOT 121906Z 11011KT 10SM SCT020 OVC043 M03/M04 A2958 RMK AO2 T10281039 $
PAOT 121853Z 10013KT 10SM BKN020 OVC043 M03/M04 A2958 RMK AO2 SLP016 T10281044 $
PAOT 121850Z 10013KT 10SM BKN020 OVC043 M03/M04 A2958 RMK AO2 $
PAOT 121753Z 11012KT 10SM SCT012 BKN038 OVC046 M03/M05 A2957 RMK AO2 SNB09E12 SLP012 P0000 60001 T10331050 11033 21083 53006 $
PAOT 121730Z 11013KT 10SM SCT026 OVC046 M04/M05 A2956 RMK AO2 SNB09E12 P0000 T10391050 $
PAOT 121702Z 11012KT 10SM SCT013 BKN026 OVC034 M04/M06 A2956 RMK AO2 T10441056 $
PAOT 121653Z 12010KT 10SM SCT012 BKN030 OVC050 M05/M06 A2956 RMK AO2 SNB1555E13 SLP010 P0000 T10501061 $
PAOT 121636Z 11009KT 10SM SCT027 BKN036 OVC050 M05/M06 A2956 RMK AO2 SNB1555E13 P0000 T10501061 $
PAOT 121553Z 12006KT 8SM BKN019 BKN031 OVC044 M06/M07 A2955 RMK AO2 SNE37 SLP006 P0000 T10561067 $
PAOT 121549Z AUTO 12006KT 7SM BKN019 BKN030 OVC042 M06/M07 A2955 RMK AO2 SNE37 P0000 TSNO $
PAOT 121453Z AUTO 11010KT 4SM -SN BR BKN034 OVC055 M07/M08 A2954 RMK AO2 SNB38 SLP004 P0001 60001 T10671078 53008 TSNO $
PAOT 121353Z AUTO 12007KT 10SM FEW042 BKN085 OVC110 M08/M09 A2953 RMK AO2 SNE1258 SLP000 P0000 T10781089 TSNO $
PAOT 121327Z AUTO 11008KT 10SM SCT025 BKN065 OVC110 M07/M08 A2952 RMK AO2 SNE1258 P0000 T10671078 TSNO $
PAOT 121311Z AUTO 11010KT 10SM BKN025 BKN030 OVC060 M07/M08 A2952 RMK AO2 SNE1258 P0000 T10671078 TSNO $
PAOT 121253Z AUTO 12008KT 6SM -SN BR SCT029 SCT037 OVC050 M07/M08 A2952 RMK AO2 SNE08B09 SLP997 P0000 T10671078 TSNO $
PAOT 121208Z AUTO 11011KT 7SM SCT009 OVC033 M06/M07 A2952 RMK AO2 SNE08 P0000 T10561067 TSNO $
PAOT 121153Z AUTO 09008KT 5SM -SN BR OVC010 M05/M07 A2952 RMK AO2 CIG 007V014 SLP996 P0000 60002 70010 T10501067 11050 21067 53008 TSNO $
PAOT 121053Z AUTO 06004KT 6SM -SN BR BKN013 OVC029 M06/M07 A2951 RMK AO2 SNB0959 SLP992 P0000 T10561067 TSNO $
PAOT 120953Z AUTO 05004KT 9SM BKN022 OVC036 M07/M08 A2950 RMK AO2 SNE49 SLP988 P0001 T10671078 TSNO $
PAOT 120930Z AUTO 05006KT 5SM -SN BR SCT020 BKN034 OVC041 M07/M08 A2949 RMK AO2 P0001 T10671078 TSNO $
PAOT 120923Z AUTO 05006KT 2 1/2SM -SN BR SCT020 OVC043 M06/M08 A2949 RMK AO2 P0001 T10611078 TSNO $
PAOT 120907Z AUTO 05006KT 1 1/2SM -SN BR OVC021 M06/M07 A2949 RMK AO2 P0000 T10611072 TSNO $
PAOT 120853Z 04005KT 2 1/2SM -SN BR BKN018 OVC024 M06/M07 A2949 RMK AO2 SLP986 P0000 60001 T10611072 410561089 51013 $
PAOT 120753Z 05005KT 4SM -SN BR OVC023 M06/M07 A2948 RMK AO2 SLP983 P0001 T10611072 $
PAOT 120735Z 06005KT 3SM -SN BR OVC023 M07/M08 A2948 RMK AO2 P0001 T10671078 $
PAOT 120710Z 05006KT 1 3/4SM -SN BR BKN025 OVC034 M06/M08 A2947 RMK AO2 P0000 T10611078 $
PAOT 120653Z 03006KT 3SM -SN BR SCT024 OVC034 M06/M08 A2947 RMK AO2 SNE01B32 SLP978 P0000 T10611078 $
PAOT 120553Z 05005KT 3SM -SN BR BKN020 OVC025 M06/M07 A2945 RMK AO2 SNB24 SLP973 P0001 60004 T10611072 11056 21067 52014 $
PAOT 120453Z 06007KT 3SM BR OVC022 M07/M08 A2944 RMK AO2 SNE37 SLP968 P0000 T10671078 $
PAOT 120353Z 07007KT 3SM -SN BR BKN021 OVC075 M06/M07 A2943 RMK AO2 SLP965 P0002 T10611072 $
PAOT 120315Z AUTO 09006KT 3SM -SN BR OVC026 M06/M07 A2941 RMK AO2 P0001 T10561072 TSNO $
PAOT 120253Z 08005KT 3SM -SN BR FEW027 OVC036 M06/M07 A2941 RMK AO2 SNE02B19 SLP959 P0000 60001 T10561072 53013 $
PAOT 120246Z 08005KT 3SM -SN BR SCT027 OVC036 M06/M07 A2941 RMK AO2 SNE02B19 P0000 T10561072 $
PAOT 120222Z 09005KT 7SM -SN BKN027 OVC037 M07/M08 A2940 RMK AO2 SNE02B19 P0000 T10671078 $
PAOT 120200Z 04005KT 7SM -SN FEW007 BKN037 OVC047 M07/M08 A2939 RMK AO2 P0000 T10671078 $
PAOT 120153Z 02005KT 5SM -SN BR SCT008 BKN021 OVC049 M07/M08 A2939 RMK AO2 SLP953 P0001 T10671083 $
PAOT 120129Z 02003KT 4SM -SN BR SCT008 BKN021 OVC049 M06/M08 A2939 RMK AO2 P0001 T10611078 $
PAOT 120121Z COR 00000KT 3SM -SN BR SCT008 BKN021 OVC049 M07/M08 A2939 RMK AO2 P0001 T10671078 $
PAOT 120110Z 04003KT 3SM -SN BR FEW010 BKN025 OVC049 M07/M08 A2938 RMK AO2 P0001 T10671078 $
PAOT 120053Z 05003KT 1 3/4SM R09/6000VP6000FT -SN BR OVC025 M07/M08 A2938 RMK AO2 SLP949 P0000 T10671078 $
PAOT 120031Z 04004KT 1 1/4SM -SN BR FEW019 BKN025 OVC033 M07/M08 A2938 RMK AO2 P0000 T10671078 $
PAOT 120021Z 03003KT 1 1/2SM -SN BR SCT019 OVC033 M07/M08 A2938 RMK AO2 P0000 T10671078 $
PAOT 120012Z 03004KT 3SM -SN BR BKN018 OVC033 M07/M08 A2937 RMK AO2 P0000 T10671078 $
PAOT 112353Z 02006KT 3SM -SN BR OVC035 M07/M08 A2937 RMK AO2 SLP946 P0002 60004 T10671078 11061 21078 51017 $
PAOT 112338Z 02005KT 1 1/2SM -SN BR OVC035 M07/M08 A2937 RMK AO2 P0001 T10671078 $
PAOT 112253Z 02005KT 1 1/4SM -SN BR OVC018 M06/M08 A2936 RMK AO2 SLP941 P0000 T10611078 $
PAOT 112233Z 02006KT 1SM R09/P6000FT -SN BR OVC015 M06/M08 A2935 RMK AO2 P0000 T10611078 $
PAOT 112153Z 04005KT 3SM -SN BR OVC012 M07/M08 A2934 RMK AO2 SLP937 VIS 2V4 P0001 T10671078 $
PAOT 112130Z 01005KT 4SM -SN BR BKN012 OVC041 M07/M08 A2933 RMK AO2 P0001 T10671078 $